Terminal Aerodrome Forecast
Issued by NWS

Home | Current Version | Previous Version | Graphics & Text | Print | Product List | Glossary On
Versions: 1 2 3 4 5 6 7 8 9 10 11 12 13 14 15 16
853
FTUS43 KMPX 292002 AAA
TAFAXN
TAF AMD
KAXN 292002Z 2920/3018 09009KT P6SM SCT050
     FM301400 07011G20KT P6SM SCT250=

USA.gov is the U.S. government's official web portal to all federal, state and local government web resources and services.